Time;durP1;ratioP1;P1;durP2;ratioP2;P2;SDS_P1;SDS_P2;PMS_P1;PMS_P2;Temp;Humidity;BMP_temperature;BMP_pressure;BME280_temperature;BME280_humidity;BME280_pressure;Samples;Min_cycle;Max_cycle;Signal;HPM_P1;HPM_P2
2021/04/13 00:01:08;;;;;;;6.30;5.00;;;;;;;;;;5076271;28;20460;-69
2021/04/13 00:03:34;;;;;;;6.55;4.35;;;;;;;;;;5094359;28;20024;-67
2021/04/13 00:06:00;;;;;;;6.40;4.18;;;;;;;;;;5093717;28;20405;-67
2021/04/13 00:08:26;;;;;;;7.25;4.85;;;;;;;;;;5076130;28;20027;-67
2021/04/13 00:10:54;;;;;;;8.35;4.32;;;;;;;;;;5094276;28;20020;-68
2021/04/13 00:13:22;;;;;;;9.95;5.05;;;;;;;;;;5093980;28;20036;-68
2021/04/13 00:15:55;;;;;;;5.72;4.50;;;;;;;;;;5094186;28;20117;-68
2021/04/13 00:18:28;;;;;;;10.07;4.40;;;;;;;;;;5093629;28;20164;-68
2021/04/13 00:20:57;;;;;;;5.35;4.25;;;;;;;;;;5093949;28;20372;-69
2021/04/13 00:23:24;;;;;;;8.48;4.78;;;;;;;;;;5075982;28;20019;-70
2021/04/13 00:25:52;;;;;;;5.85;5.25;;;;;;;;;;5093743;28;20020;-70
2021/04/13 00:28:23;;;;;;;6.07;5.00;;;;;;;;;;5076728;28;20020;-70
2021/04/13 00:30:53;;;;;;;6.78;3.90;;;;;;;;;;5094010;28;20016;-70
2021/04/13 00:33:24;;;;;;;4.63;4.20;;;;;;;;;;5093513;28;20507;-70
2021/04/13 00:36:16;;;;;;;6.82;5.30;;;;;;;;;;5094231;28;20027;-71
2021/04/13 00:38:42;;;;;;;6.30;4.75;;;;;;;;;;5093835;28;20482;-69
2021/04/13 00:41:17;;;;;;;8.57;4.18;;;;;;;;;;5093554;28;20107;-68
2021/04/13 00:43:51;;;;;;;4.82;4.43;;;;;;;;;;5075762;28;20024;-69
2021/04/13 00:46:22;;;;;;;5.13;4.65;;;;;;;;;;5093764;28;20019;-68
2021/04/13 00:48:49;;;;;;;5.97;5.35;;;;;;;;;;5094058;28;20028;-68
2021/04/13 00:51:21;;;;;;;5.53;4.35;;;;;;;;;;5093834;28;20083;-69
2021/04/13 00:53:49;;;;;;;5.78;3.95;;;;;;;;;;5075581;28;20032;-68
2021/04/13 00:56:16;;;;;;;4.47;4.07;;;;;;;;;;5075648;28;20364;-68
2021/04/13 00:58:48;;;;;;;5.87;4.37;;;;;;;;;;5075612;28;20054;-69
2021/04/13 01:01:25;;;;;;;4.30;3.90;;;;;;;;;;5093224;28;20301;-68
2021/04/13 01:04:01;;;;;;;4.07;3.70;;;;;;;;;;5075610;28;20052;-68
2021/04/13 01:06:28;;;;;;;6.43;4.13;;;;;;;;;;5093851;28;20016;-68
2021/04/13 01:09:06;;;;;;;3.53;3.00;;;;;;;;;;5093224;28;20039;-68
2021/04/13 01:11:34;;;;;;;4.10;3.72;;;;;;;;;;5075451;28;20024;-68
2021/04/13 01:14:02;;;;;;;3.40;3.13;;;;;;;;;;5093471;28;20073;-68
2021/04/13 01:16:30;;;;;;;3.28;3.08;;;;;;;;;;5094280;28;20031;-68
2021/04/13 01:18:59;;;;;;;3.28;2.92;;;;;;;;;;5075496;28;20345;-68
2021/04/13 01:21:42;;;;;;;2.85;2.63;;;;;;;;;;5093412;28;20065;-68
2021/04/13 01:24:12;;;;;;;2.60;2.50;;;;;;;;;;5096471;28;20377;-67
2021/04/13 01:26:42;;;;;;;3.95;2.63;;;;;;;;;;5097456;28;20011;-69
2021/04/13 01:29:08;;;;;;;3.67;3.17;;;;;;;;;;5096869;28;20024;-68
2021/04/13 01:34:41;;;;;;;3.33;3.13;;;;;;;;;;5100706;28;20053;-68
2021/04/13 01:37:16;;;;;;;3.17;2.60;;;;;;;;;;5098942;28;20099;-68
2021/04/13 01:39:52;;;;;;;5.07;3.13;;;;;;;;;;5097546;28;20016;-68
2021/04/13 01:42:18;;;;;;;3.15;2.95;;;;;;;;;;5098635;28;20016;-67
2021/04/13 01:44:49;;;;;;;5.90;3.55;;;;;;;;;;5102788;28;20024;-68
2021/04/13 01:47:16;;;;;;;2.65;2.53;;;;;;;;;;5103004;28;20081;-68
2021/04/13 01:49:48;;;;;;;3.30;2.97;;;;;;;;;;5102774;28;20020;-67
2021/04/13 01:52:33;;;;;;;3.13;2.38;;;;;;;;;;5102160;28;20028;-69
2021/04/13 01:55:00;;;;;;;5.72;2.70;;;;;;;;;;5084270;28;20016;-68
2021/04/13 01:57:38;;;;;;;3.25;2.45;;;;;;;;;;5083112;28;20016;-67
2021/04/13 02:00:13;;;;;;;4.15;2.83;;;;;;;;;;5101654;28;20024;-67
2021/04/13 02:02:51;;;;;;;5.57;2.25;;;;;;;;;;5100958;28;20368;-68
2021/04/13 02:05:18;;;;;;;;;;;;;;;;;;5100871;28;20012;-67
2021/04/13 02:10:29;;;;;;;3.28;2.65;;;;;;;;;;5096957;28;20028;-68
2021/04/13 02:12:57;;;;;;;3.20;2.53;;;;;;;;;;5096738;28;20113;-69
2021/04/13 02:15:23;;;;;;;2.33;2.15;;;;;;;;;;5078220;28;20054;-68
2021/04/13 02:17:53;;;;;;;2.33;2.20;;;;;;;;;;5095770;28;20026;-68
2021/04/13 02:20:21;;;;;;;4.68;2.42;;;;;;;;;;5096215;28;20016;-68
2021/04/13 02:22:47;;;;;;;;;;;;;;;;;;5096530;28;20483;-68
2021/04/13 02:25:16;;;;;;;2.15;2.05;;;;;;;;;;5095887;28;19986;-68
2021/04/13 02:27:43;;;;;;;2.45;1.40;;;;;;;;;;5096474;28;20016;-69
2021/04/13 02:30:09;;;;;;;;;;;;;;;;;;5096484;28;20052;-68
2021/04/13 02:32:41;;;;;;;2.47;2.28;;;;;;;;;;5095703;28;20308;-68
2021/04/13 02:35:14;;;;;;;2.22;2.13;;;;;;;;;;5095547;28;20020;-68
2021/04/13 02:37:41;;;;;;;1.83;1.73;;;;;;;;;;5096021;28;20031;-68
2021/04/13 02:40:11;;;;;;;5.93;2.30;;;;;;;;;;5095650;28;20020;-68
2021/04/13 02:42:42;;;;;;;1.95;1.85;;;;;;;;;;5077694;28;20543;-68
2021/04/13 02:45:13;;;;;;;2.08;1.98;;;;;;;;;;5095301;28;20465;-68
2021/04/13 02:47:45;;;;;;;2.08;1.90;;;;;;;;;;5095444;28;20525;-68
2021/04/13 02:50:14;;;;;;;1.90;1.80;;;;;;;;;;5095788;28;20027;-68
2021/04/13 02:52:43;;;;;;;2.20;2.08;;;;;;;;;;5095683;28;20108;-68
2021/04/13 02:55:10;;;;;;;4.15;1.50;;;;;;;;;;5095919;28;20060;-69
2021/04/13 02:57:41;;;;;;;2.30;1.50;;;;;;;;;;5095917;28;20020;-68
2021/04/13 03:00:09;;;;;;;1.95;1.70;;;;;;;;;;5095241;28;20016;-68
2021/04/13 03:02:35;;;;;;;1.70;1.60;;;;;;;;;;5095894;28;20423;-68
2021/04/13 03:05:02;;;;;;;1.67;1.60;;;;;;;;;;5095462;28;20348;-68
2021/04/13 03:07:29;;;;;;;6.05;1.50;;;;;;;;;;5095237;28;20074;-69
2021/04/13 03:10:01;;;;;;;2.25;1.70;;;;;;;;;;5095392;28;20020;-69
2021/04/13 03:12:30;;;;;;;2.15;1.95;;;;;;;;;;5095587;28;20036;-69
2021/04/13 03:14:57;;;;;;;3.70;1.20;;;;;;;;;;5095213;28;20094;-68
2021/04/13 03:17:28;;;;;;;1.60;1.50;;;;;;;;;;5095522;28;20513;-69
2021/04/13 03:19:59;;;;;;;3.10;2.10;;;;;;;;;;5076835;28;20387;-69
2021/04/13 03:22:25;;;;;;;1.60;1.50;;;;;;;;;;5095312;28;20071;-69
2021/04/13 03:24:52;;;;;;;1.77;1.65;;;;;;;;;;5095108;28;20024;-69
2021/04/13 03:27:23;;;;;;;2.85;1.45;;;;;;;;;;5094471;28;20020;-71
2021/04/13 03:29:49;;;;;;;2.17;1.92;;;;;;;;;;5079819;28;20034;-69
2021/04/13 03:32:18;;;;;;;2.08;1.88;;;;;;;;;;5107359;28;20073;-68
2021/04/13 03:34:44;;;;;;;4.00;1.30;;;;;;;;;;5099626;28;20012;-67
2021/04/13 03:37:11;;;;;;;2.60;2.40;;;;;;;;;;5083194;28;20028;-67
2021/04/13 03:39:40;;;;;;;7.47;3.72;;;;;;;;;;5088274;28;20015;-67
2021/04/13 03:42:06;;;;;;;6.07;3.72;;;;;;;;;;5106465;28;20030;-68
2021/04/13 03:44:36;;;;;;;16.02;6.13;;;;;;;;;;5097745;28;20027;-68
2021/04/13 03:47:08;;;;;;;18.58;10.68;;;;;;;;;;5078122;28;20024;-67
2021/04/13 03:49:35;;;;;;;10.90;6.50;;;;;;;;;;5099031;28;20027;-67
2021/04/13 03:52:08;;;;;;;10.57;8.13;;;;;;;;;;5101431;28;20027;-67
2021/04/13 03:54:35;;;;;;;11.38;7.30;;;;;;;;;;5101308;28;20539;-67
2021/04/13 03:57:01;;;;;;;;;;;;;;;;;;5103896;28;20047;-69
2021/04/13 03:59:30;;;;;;;3.03;2.83;;;;;;;;;;5102185;28;19900;-67
2021/04/13 04:01:57;;;;;;;5.40;4.38;;;;;;;;;;5102369;28;20024;-68
2021/04/13 04:04:28;;;;;;;3.97;3.58;;;;;;;;;;5102307;28;20016;-67
2021/04/13 04:07:02;;;;;;;4.07;3.58;;;;;;;;;;5094347;28;20054;-67
2021/04/13 04:09:32;;;;;;;3.35;3.05;;;;;;;;;;5094060;28;20012;-68
2021/04/13 04:11:59;;;;;;;4.03;3.50;;;;;;;;;;5093821;28;20364;-67
2021/04/13 04:14:27;;;;;;;3.33;3.03;;;;;;;;;;5094518;28;20449;-67
2021/04/13 04:17:25;;;;;;;3.35;2.35;;;;;;;;;;5093898;28;20415;-68
2021/04/13 04:19:56;;;;;;;2.30;2.10;;;;;;;;;;5038635;28;20081;-68
2021/04/13 04:22:24;;;;;;;2.58;2.28;;;;;;;;;;5075882;28;20118;-67
2021/04/13 04:24:50;;;;;;;3.08;2.63;;;;;;;;;;5093549;28;20567;-67
2021/04/13 04:27:16;;;;;;;3.45;3.15;;;;;;;;;;5075901;28;20023;-67
2021/04/13 04:29:44;;;;;;;4.20;3.75;;;;;;;;;;5094059;28;20549;-67
2021/04/13 04:32:14;;;;;;;15.10;7.13;;;;;;;;;;5093609;28;20028;-69
2021/04/13 04:34:41;;;;;;;10.85;6.32;;;;;;;;;;5093997;28;20020;-69
2021/04/13 04:37:28;;;;;;;11.35;7.07;;;;;;;;;;5093720;28;20024;-68
2021/04/13 04:40:30;;;;;;;9.03;6.10;;;;;;;;;;5093831;28;20103;-68
2021/04/13 04:42:57;;;;;;;7.68;4.78;;;;;;;;;;4975664;28;20362;-68
2021/04/13 04:45:41;;;;;;;9.90;5.50;;;;;;;;;;5073877;28;20506;-68
2021/04/13 04:48:26;;;;;;;7.72;5.70;;;;;;;;;;5093858;28;20248;-69
2021/04/13 04:50:57;;;;;;;5.20;4.70;;;;;;;;;;5075770;28;20087;-69
2021/04/13 04:53:24;;;;;;;4.05;2.80;;;;;;;;;;5075982;28;20024;-69
2021/04/13 04:55:51;;;;;;;2.63;2.50;;;;;;;;;;5093821;28;20042;-69
2021/04/13 04:58:17;;;;;;;3.40;2.55;;;;;;;;;;5096050;28;20012;-69
2021/04/13 05:00:43;;;;;;;3.90;2.90;;;;;;;;;;5097612;28;20020;-69
2021/04/13 05:03:09;;;;;;;3.08;2.10;;;;;;;;;;5079668;28;20431;-68
2021/04/13 05:05:36;;;;;;;2.80;1.88;;;;;;;;;;5097696;28;20352;-68
2021/04/13 05:08:02;;;;;;;3.25;2.83;;;;;;;;;;5098022;28;20016;-68
2021/04/13 05:10:28;;;;;;;3.13;2.20;;;;;;;;;;5097448;28;20020;-68
2021/04/13 05:12:54;;;;;;;3.45;2.78;;;;;;;;;;5097393;28;20031;-68
2021/04/13 05:15:20;;;;;;;2.50;2.08;;;;;;;;;;5098168;28;20069;-69
2021/04/13 05:17:46;;;;;;;2.58;1.92;;;;;;;;;;5097847;28;20023;-69
2021/04/13 05:20:13;;;;;;;4.03;1.80;;;;;;;;;;5096672;28;20356;-68
2021/04/13 05:22:39;;;;;;;3.38;2.25;;;;;;;;;;5097828;28;20074;-68
2021/04/13 05:25:06;;;;;;;4.75;2.10;;;;;;;;;;5079182;28;20016;-69
2021/04/13 05:27:32;;;;;;;3.33;1.90;;;;;;;;;;5078632;28;20027;-69
2021/04/13 05:29:58;;;;;;;2.50;1.90;;;;;;;;;;5097084;28;20356;-69
2021/04/13 05:32:24;;;;;;;1.83;1.75;;;;;;;;;;5097442;28;20028;-69
2021/04/13 05:34:50;;;;;;;3.50;1.60;;;;;;;;;;5078774;28;20016;-69
2021/04/13 05:37:16;;;;;;;2.40;1.73;;;;;;;;;;5079026;28;20049;-69
2021/04/13 05:39:42;;;;;;;2.15;1.50;;;;;;;;;;5097141;28;20020;-70
2021/04/13 05:42:15;;;;;;;3.13;2.47;;;;;;;;;;5097087;28;20070;-68
2021/04/13 05:44:41;;;;;;;1.60;1.50;;;;;;;;;;5097098;28;20487;-68
2021/04/13 05:47:08;;;;;;;1.58;1.48;;;;;;;;;;5096393;28;20017;-69
2021/04/13 05:49:34;;;;;;;3.22;2.30;;;;;;;;;;5096939;28;20394;-73
2021/04/13 05:52:00;;;;;;;3.92;2.53;;;;;;;;;;5078657;28;20024;-72
2021/04/13 05:54:26;;;;;;;1.20;1.08;;;;;;;;;;5096802;28;20333;-72
2021/04/13 05:56:53;;;;;;;4.03;1.95;;;;;;;;;;5078647;28;20012;-72
2021/04/13 05:59:20;;;;;;;3.38;1.95;;;;;;;;;;5096943;28;20087;-71
2021/04/13 06:01:48;;;;;;;4.15;1.23;;;;;;;;;;5096130;28;20095;-73
2021/04/13 06:04:14;;;;;;;1.10;1.00;;;;;;;;;;5096967;28;20430;-73
2021/04/13 06:06:41;;;;;;;1.55;1.33;;;;;;;;;;5078400;28;20027;-66
2021/04/13 06:09:07;;;;;;;3.90;1.27;;;;;;;;;;5095309;28;20024;-69
2021/04/13 06:11:33;;;;;;;1.45;1.35;;;;;;;;;;5096426;28;20360;-69
2021/04/13 06:14:01;;;;;;;6.30;3.10;;;;;;;;;;5096476;28;20452;-68
2021/04/13 06:16:34;;;;;;;;;;;;;;;;;;5096551;28;20050;-66
2021/04/13 06:19:00;;;;;;;5.72;1.77;;;;;;;;;;5096749;28;20390;-67
2021/04/13 06:21:27;;;;;;;2.90;1.65;;;;;;;;;;5097077;28;20132;-63
2021/04/13 06:23:53;;;;;;;2.35;1.50;;;;;;;;;;5106321;28;20023;-66
2021/04/13 06:26:20;;;;;;;8.68;3.80;;;;;;;;;;5085683;28;20028;-66
2021/04/13 06:28:46;;;;;;;6.07;3.53;;;;;;;;;;5105988;28;20016;-65
2021/04/13 06:31:12;;;;;;;7.90;2.65;;;;;;;;;;5104590;28;20479;-66
2021/04/13 06:33:38;;;;;;;3.53;2.50;;;;;;;;;;5103891;28;20023;-71
2021/04/13 06:36:05;;;;;;;5.78;2.15;;;;;;;;;;5077780;28;20054;-66
2021/04/13 06:38:31;;;;;;;22.17;9.23;;;;;;;;;;5104786;28;20016;-66
2021/04/13 06:41:03;;;;;;;3.15;2.83;;;;;;;;;;5105374;28;20035;-61
2021/04/13 06:43:41;;;;;;;7.88;4.70;;;;;;;;;;5103867;28;20016;-67
2021/04/13 06:46:07;;;;;;;16.90;7.97;;;;;;;;;;5103812;28;20020;-69
2021/04/13 06:48:54;;;;;;;15.40;7.00;;;;;;;;;;5104299;28;20099;-69
2021/04/13 06:51:20;;;;;;;6.67;4.37;;;;;;;;;;5057573;28;20016;-69
2021/04/13 06:54:05;;;;;;;8.48;3.75;;;;;;;;;;5085604;28;20330;-70
2021/04/13 06:56:42;;;;;;;12.70;4.38;;;;;;;;;;5087252;28;20016;-68
2021/04/13 06:59:28;;;;;;;3.57;2.63;;;;;;;;;;5103674;28;20038;-69
2021/04/13 07:01:56;;;;;;;7.30;3.13;;;;;;;;;;5104490;28;20248;-66
2021/04/13 07:04:28;;;;;;;12.10;4.57;;;;;;;;;;5103129;28;20016;-66
2021/04/13 07:07:11;;;;;;;9.00;4.78;;;;;;;;;;5103759;28;20491;-61
2021/04/13 07:09:43;;;;;;;7.20;2.85;;;;;;;;;;5104258;28;20031;-66
2021/04/13 07:12:24;;;;;;;8.23;4.07;;;;;;;;;;5102893;28;20107;-71
2021/04/13 07:14:57;;;;;;;6.90;3.65;;;;;;;;;;5103353;28;20016;-73
2021/04/13 07:18:02;;;;;;;7.68;3.45;;;;;;;;;;5105547;28;20047;-65
2021/04/13 07:20:41;;;;;;;8.77;4.30;;;;;;;;;;5022767;28;20049;-68
2021/04/13 07:23:11;;;;;;;4.32;3.28;;;;;;;;;;5033030;28;20029;-68
2021/04/13 07:25:40;;;;;;;5.10;3.88;;;;;;;;;;5051697;28;20090;-68
2021/04/13 07:28:13;;;;;;;5.05;3.42;;;;;;;;;;5095600;28;20019;-67
2021/04/13 07:30:43;;;;;;;16.13;4.60;;;;;;;;;;5095250;28;20020;-67
2021/04/13 07:33:12;;;;;;;14.63;4.97;;;;;;;;;;5094609;28;20020;-68
2021/04/13 07:35:39;;;;;;;5.47;3.25;;;;;;;;;;5095163;28;20028;-67
2021/04/13 07:38:11;;;;;;;3.20;2.20;;;;;;;;;;5094900;28;20027;-67
2021/04/13 07:40:40;;;;;;;6.35;3.10;;;;;;;;;;5094511;28;20073;-66
2021/04/13 07:43:06;;;;;;;4.65;3.08;;;;;;;;;;5094732;28;20024;-67
2021/04/13 07:45:50;;;;;;;5.75;3.67;;;;;;;;;;5094616;28;20069;-66
2021/04/13 07:48:19;;;;;;;3.90;3.38;;;;;;;;;;5094655;28;20020;-67
2021/04/13 07:50:45;;;;;;;4.50;3.42;;;;;;;;;;5076413;28;20050;-67
2021/04/13 07:53:44;;;;;;;8.60;4.57;;;;;;;;;;5094169;28;20491;-67
2021/04/13 07:56:17;;;;;;;10.27;4.55;;;;;;;;;;5060707;28;20074;-68
2021/04/13 07:58:48;;;;;;;9.25;4.03;;;;;;;;;;5094496;28;20039;-67
2021/04/13 08:01:15;;;;;;;10.23;4.38;;;;;;;;;;5075649;28;20020;-67
2021/04/13 08:03:42;;;;;;;5.35;3.38;;;;;;;;;;5094408;28;20024;-67
2021/04/13 08:06:28;;;;;;;8.38;3.78;;;;;;;;;;5094643;28;20087;-67
2021/04/13 08:09:06;;;;;;;7.40;3.67;;;;;;;;;;5094010;28;20063;-67
2021/04/13 08:11:32;;;;;;;5.40;3.47;;;;;;;;;;5094025;28;20042;-68
2021/04/13 08:14:14;;;;;;;12.55;4.50;;;;;;;;;;5093984;28;20028;-67
2021/04/13 08:16:41;;;;;;;12.32;6.90;;;;;;;;;;5094319;28;20016;-68
2021/04/13 08:19:31;;;;;;;7.43;4.18;;;;;;;;;;5094455;28;20095;-67
2021/04/13 08:22:00;;;;;;;3.20;2.85;;;;;;;;;;5093575;28;20048;-67
2021/04/13 08:24:31;;;;;;;7.35;3.63;;;;;;;;;;5094120;28;20054;-67
2021/04/13 08:27:10;;;;;;;3.85;2.50;;;;;;;;;;5093802;28;20078;-68
2021/04/13 08:29:40;;;;;;;7.55;4.15;;;;;;;;;;5093837;28;20040;-67
2021/04/13 08:35:05;;;;;;;16.17;9.15;;;;;;;;;;5096310;28;20030;-66
2021/04/13 08:37:42;;;;;;;14.52;8.10;;;;;;;;;;5083748;28;20187;-69
2021/04/13 08:40:22;;;;;;;7.53;4.72;;;;;;;;;;5085660;28;20027;-65
2021/04/13 08:42:52;;;;;;;7.03;4.57;;;;;;;;;;5103199;28;20055;-64
2021/04/13 08:45:36;;;;;;;8.68;5.03;;;;;;;;;;5102000;28;20012;-69
2021/04/13 08:48:12;;;;;;;8.15;4.75;;;;;;;;;;5102222;28;20070;-69
2021/04/13 08:50:43;;;;;;;12.00;6.05;;;;;;;;;;5098579;28;20040;-68
2021/04/13 08:53:11;;;;;;;9.68;6.25;;;;;;;;;;5075323;28;20067;-72
2021/04/13 08:55:37;;;;;;;9.05;5.57;;;;;;;;;;5075678;28;20107;-72
2021/04/13 08:58:19;;;;;;;7.32;5.65;;;;;;;;;;5094061;28;20063;-71
2021/04/13 09:00:49;;;;;;;9.82;4.18;;;;;;;;;;5075455;28;20020;-74
2021/04/13 09:03:20;;;;;;;12.60;6.50;;;;;;;;;;5075725;28;20028;-72
2021/04/13 09:05:48;;;;;;;10.75;6.35;;;;;;;;;;5076496;28;20046;-72
2021/04/13 09:08:14;;;;;;;12.57;7.50;;;;;;;;;;5074943;28;20074;-69
2021/04/13 09:10:50;;;;;;;9.00;5.32;;;;;;;;;;5093645;28;20376;-71
2021/04/13 09:13:22;;;;;;;5.28;4.05;;;;;;;;;;5075433;28;20031;-74
2021/04/13 09:16:06;;;;;;;11.85;5.50;;;;;;;;;;5075196;28;20024;-70
2021/04/13 09:18:32;;;;;;;11.10;6.75;;;;;;;;;;5093932;28;20024;-71
2021/04/13 09:21:07;;;;;;;10.82;5.78;;;;;;;;;;5074783;28;20468;-70
2021/04/13 09:23:52;;;;;;;17.33;8.27;;;;;;;;;;5075384;28;20110;-71
2021/04/13 09:26:22;;;;;;;15.45;8.25;;;;;;;;;;5075361;28;20020;-70
2021/04/13 09:28:52;;;;;;;15.45;6.82;;;;;;;;;;5075021;28;20099;-73
2021/04/13 09:31:28;;;;;;;7.38;4.65;;;;;;;;;;5093489;28;20044;-72
2021/04/13 09:34:06;;;;;;;11.48;5.47;;;;;;;;;;5093680;28;20426;-70
2021/04/13 09:36:49;;;;;;;18.33;8.70;;;;;;;;;;5092947;28;20027;-70
2021/04/13 09:39:24;;;;;;;23.42;9.93;;;;;;;;;;5093136;28;20525;-72
2021/04/13 09:41:56;;;;;;;9.80;4.65;;;;;;;;;;5074917;28;20456;-70
2021/04/13 09:44:37;;;;;;;12.35;6.18;;;;;;;;;;5094818;28;20054;-70
2021/04/13 09:47:13;;;;;;;10.13;4.55;;;;;;;;;;5078835;28;20020;-70
2021/04/13 09:49:51;;;;;;;6.97;4.13;;;;;;;;;;5096629;28;20020;-70
2021/04/13 09:52:23;;;;;;;12.25;4.65;;;;;;;;;;5096543;28;20114;-70
2021/04/13 09:54:58;;;;;;;8.38;4.88;;;;;;;;;;5096891;28;20070;-70
2021/04/13 09:57:32;;;;;;;9.43;3.55;;;;;;;;;;5096221;28;20013;-70
2021/04/13 10:00:17;;;;;;;5.65;3.63;;;;;;;;;;5078705;28;20019;-70
2021/04/13 10:02:46;;;;;;;10.57;6.05;;;;;;;;;;5078248;28;20032;-70
2021/04/13 10:05:14;;;;;;;9.82;4.35;;;;;;;;;;5078479;28;20024;-70
2021/04/13 10:07:53;;;;;;;9.15;4.03;;;;;;;;;;5097114;28;20020;-70
2021/04/13 10:10:22;;;;;;;9.73;5.13;;;;;;;;;;5096570;28;20023;-66
2021/04/13 10:12:55;;;;;;;6.28;3.88;;;;;;;;;;5106237;28;20032;-69
2021/04/13 10:15:30;;;;;;;7.07;4.70;;;;;;;;;;5087899;28;20016;-69
2021/04/13 10:18:15;;;;;;;7.88;4.97;;;;;;;;;;5104783;28;20012;-63
2021/04/13 10:20:45;;;;;;;7.82;3.78;;;;;;;;;;5105393;28;20047;-63
2021/04/13 10:23:11;;;;;;;7.28;4.43;;;;;;;;;;5104235;28;20111;-70
2021/04/13 10:25:43;;;;;;;10.63;6.53;;;;;;;;;;5104289;28;20459;-72
2021/04/13 10:28:21;;;;;;;7.00;4.55;;;;;;;;;;5087925;28;20050;-70
2021/04/13 10:30:47;;;;;;;10.07;5.18;;;;;;;;;;5105381;28;20091;-70
2021/04/13 10:33:26;;;;;;;13.25;4.38;;;;;;;;;;5086103;28;20153;-70
2021/04/13 10:36:11;;;;;;;5.85;3.45;;;;;;;;;;5087798;28;20103;-69
2021/04/13 10:39:03;;;;;;;6.53;2.97;;;;;;;;;;5104813;28;20016;-69
2021/04/13 10:41:47;;;;;;;7.93;3.35;;;;;;;;;;5077150;28;20024;-68
2021/04/13 10:44:32;;;;;;;8.73;4.05;;;;;;;;;;5087509;28;20481;-70
2021/04/13 10:47:17;;;;;;;10.13;4.97;;;;;;;;;;5105334;28;20051;-69
2021/04/13 10:49:58;;;;;;;17.77;6.95;;;;;;;;;;5105817;28;20028;-70
2021/04/13 10:52:24;;;;;;;20.38;9.52;;;;;;;;;;5105218;28;20107;-73
2021/04/13 10:54:59;;;;;;;20.75;10.98;;;;;;;;;;5103225;28;20020;-70
2021/04/13 10:57:45;;;;;;;14.90;7.90;;;;;;;;;;5102740;28;20463;-70
2021/04/13 11:00:11;;;;;;;20.25;9.60;;;;;;;;;;5087027;28;20055;-70
2021/04/13 11:02:37;;;;;;;17.60;7.70;;;;;;;;;;5105258;28;20019;-69
2021/04/13 11:05:22;;;;;;;13.05;8.23;;;;;;;;;;5084276;28;20109;-70
2021/04/13 11:07:51;;;;;;;13.52;8.23;;;;;;;;;;5087558;28;20047;-69
2021/04/13 11:10:20;;;;;;;19.92;9.50;;;;;;;;;;5097536;28;20470;-70
2021/04/13 11:12:53;;;;;;;18.33;10.27;;;;;;;;;;5115365;28;20470;-70
2021/04/13 11:15:36;;;;;;;19.38;10.80;;;;;;;;;;5115694;28;20039;-70
2021/04/13 11:18:21;;;;;;;21.73;10.60;;;;;;;;;;5115386;28;20023;-70
2021/04/13 11:20:56;;;;;;;21.83;11.02;;;;;;;;;;5093264;28;20139;-70
2021/04/13 11:23:35;;;;;;;17.85;12.32;;;;;;;;;;5094135;28;20368;-71
2021/04/13 11:26:10;;;;;;;26.55;13.77;;;;;;;;;;5095184;28;20456;-70
2021/04/13 11:28:48;;;;;;;21.63;12.45;;;;;;;;;;5094723;28;20031;-71
2021/04/13 11:31:15;;;;;;;23.75;13.15;;;;;;;;;;5094700;28;20016;-71
2021/04/13 11:33:44;;;;;;;18.92;11.50;;;;;;;;;;5094634;28;20153;-70
2021/04/13 11:36:29;;;;;;;16.77;11.57;;;;;;;;;;5095023;28;20016;-70
2021/04/13 11:39:18;;;;;;;19.75;12.77;;;;;;;;;;5095383;28;20020;-70
2021/04/13 11:42:04;;;;;;;22.50;13.07;;;;;;;;;;5056721;28;20059;-70
2021/04/13 11:44:33;;;;;;;20.23;13.03;;;;;;;;;;5095328;28;20024;-70
2021/04/13 11:47:14;;;;;;;16.77;11.40;;;;;;;;;;5094735;28;20708;-70
2021/04/13 11:49:58;;;;;;;21.38;10.90;;;;;;;;;;5094405;28;20047;-70
2021/04/13 11:52:43;;;;;;;15.35;10.73;;;;;;;;;;5093254;28;20039;-70
2021/04/13 11:55:28;;;;;;;15.93;10.80;;;;;;;;;;5094401;28;20050;-70
2021/04/13 11:58:11;;;;;;;20.33;13.50;;;;;;;;;;5094821;28;20468;-70
2021/04/13 12:00:37;;;;;;;23.33;13.57;;;;;;;;;;5094594;28;20020;-70
2021/04/13 12:03:15;;;;;;;23.02;12.63;;;;;;;;;;5094142;28;20098;-70
2021/04/13 12:05:45;;;;;;;18.70;12.60;;;;;;;;;;5094248;28;20016;-70
2021/04/13 12:08:23;;;;;;;19.88;13.55;;;;;;;;;;5093416;28;20510;-70
2021/04/13 12:10:50;;;;;;;23.15;15.18;;;;;;;;;;5094063;28;20024;-70
2021/04/13 12:13:34;;;;;;;17.00;11.18;;;;;;;;;;5094038;28;20086;-70
2021/04/13 12:16:01;;;;;;;20.27;12.95;;;;;;;;;;5093980;28;20013;-69
2021/04/13 12:18:37;;;;;;;23.15;12.18;;;;;;;;;;5094563;28;20020;-70
2021/04/13 12:21:21;;;;;;;18.65;13.07;;;;;;;;;;5093824;28;20044;-69
2021/04/13 12:23:47;;;;;;;15.75;10.70;;;;;;;;;;5097031;28;20020;-67
2021/04/13 12:26:28;;;;;;;21.67;14.52;;;;;;;;;;5091127;28;20051;-68
2021/04/13 12:28:54;;;;;;;16.38;11.38;;;;;;;;;;5084887;28;20024;-69
2021/04/13 12:31:25;;;;;;;24.88;15.43;;;;;;;;;;5076395;28;20100;-69
2021/04/13 12:33:52;;;;;;;16.75;11.05;;;;;;;;;;5082439;28;20024;-69
2021/04/13 12:36:37;;;;;;;15.75;10.25;;;;;;;;;;5072486;28;20483;-72
2021/04/13 12:39:04;;;;;;;16.48;12.15;;;;;;;;;;5070982;28;20364;-69
2021/04/13 12:41:52;;;;;;;19.67;12.75;;;;;;;;;;5073401;28;20114;-69
2021/04/13 12:44:19;;;;;;;16.95;11.15;;;;;;;;;;5074338;28;20028;-70
2021/04/13 12:46:49;;;;;;;15.63;11.57;;;;;;;;;;5071875;28;20029;-70
2021/04/13 12:49:15;;;;;;;19.63;13.93;;;;;;;;;;5071823;28;20460;-71
2021/04/13 12:51:56;;;;;;;17.60;12.52;;;;;;;;;;5074985;28;20020;-71
2021/04/13 12:54:31;;;;;;;23.58;14.40;;;;;;;;;;5086107;28;20028;-71
2021/04/13 12:57:00;;;;;;;19.27;11.13;;;;;;;;;;5092543;28;20012;-70
2021/04/13 12:59:28;;;;;;;22.88;13.23;;;;;;;;;;5089478;28;20028;-69
2021/04/13 13:01:55;;;;;;;19.55;13.18;;;;;;;;;;5072895;28;20044;-69
2021/04/13 13:04:22;;;;;;;20.00;12.97;;;;;;;;;;5072163;28;20021;-68
2021/04/13 13:06:52;;;;;;;21.23;13.63;;;;;;;;;;5086425;28;20038;-68
2021/04/13 13:09:21;;;;;;;23.17;14.73;;;;;;;;;;5081876;28;20020;-69
2021/04/13 13:11:56;;;;;;;21.45;13.25;;;;;;;;;;5076468;28;20035;-69
2021/04/13 13:14:22;;;;;;;21.90;13.93;;;;;;;;;;5077030;28;20067;-69
2021/04/13 13:16:54;;;;;;;30.80;17.30;;;;;;;;;;5081532;28;20032;-69
2021/04/13 13:19:47;;;;;;;33.03;19.30;;;;;;;;;;5079521;28;20062;-68
2021/04/13 13:22:23;;;;;;;31.42;17.65;;;;;;;;;;5098415;28;20083;-68
2021/04/13 13:24:51;;;;;;;24.00;16.35;;;;;;;;;;5103642;28;20028;-69
2021/04/13 13:27:26;;;;;;;20.83;12.48;;;;;;;;;;5088315;28;20030;-69
2021/04/13 13:29:52;;;;;;;20.73;13.10;;;;;;;;;;5108807;28;20024;-69
2021/04/13 13:32:19;;;;;;;20.17;14.52;;;;;;;;;;5098338;28;20084;-69
2021/04/13 13:34:48;;;;;;;20.83;13.50;;;;;;;;;;5115925;28;20480;-70
2021/04/13 13:37:14;;;;;;;20.92;13.75;;;;;;;;;;5098246;28;20046;-69
2021/04/13 13:39:41;;;;;;;18.10;12.00;;;;;;;;;;5107693;28;20042;-69
2021/04/13 13:42:16;;;;;;;15.20;10.98;;;;;;;;;;5106905;28;20095;-68
2021/04/13 13:44:42;;;;;;;23.83;14.63;;;;;;;;;;5078837;28;20020;-70
2021/04/13 13:47:08;;;;;;;28.33;17.52;;;;;;;;;;5103463;28;20519;-69
2021/04/13 13:49:37;;;;;;;25.02;14.88;;;;;;;;;;5103856;28;20064;-68
2021/04/13 13:52:08;;;;;;;28.27;19.27;;;;;;;;;;5083582;28;20390;-68
2021/04/13 13:54:35;;;;;;;16.35;11.75;;;;;;;;;;5103348;28;20094;-70
2021/04/13 13:57:12;;;;;;;15.30;10.38;;;;;;;;;;5107896;28;20020;-68
2021/04/13 13:59:39;;;;;;;18.85;12.52;;;;;;;;;;5096307;28;20027;-68
2021/04/13 14:02:10;;;;;;;17.52;12.15;;;;;;;;;;5095526;28;20012;-73
2021/04/13 14:04:37;;;;;;;21.00;12.75;;;;;;;;;;5103321;28;20367;-68
2021/04/13 14:07:05;;;;;;;20.35;15.00;;;;;;;;;;5101280;28;20099;-69
2021/04/13 14:09:32;;;;;;;20.80;13.07;;;;;;;;;;5098279;28;20023;-69
2021/04/13 14:11:58;;;;;;;;;;;;;;;;;;5101549;28;20020;-68
2021/04/13 14:14:24;;;;;;;23.17;13.70;;;;;;;;;;5086628;28;20229;-68
2021/04/13 14:16:52;;;;;;;17.90;11.35;;;;;;;;;;5099763;28;20028;-67
2021/04/13 14:19:24;;;;;;;17.63;11.27;;;;;;;;;;5101135;28;20012;-67
2021/04/13 14:21:56;;;;;;;22.33;14.30;;;;;;;;;;5104606;28;20039;-69
2021/04/13 14:24:27;;;;;;;34.38;19.00;;;;;;;;;;5100976;28;20020;-69
2021/04/13 14:27:07;;;;;;;23.35;15.95;;;;;;;;;;5104330;28;20042;-68
2021/04/13 14:29:34;;;;;;;23.25;14.13;;;;;;;;;;5093428;28;20077;-68
2021/04/13 14:32:00;;;;;;;19.95;13.18;;;;;;;;;;5107344;28;20042;-69
2021/04/13 14:34:28;;;;;;;19.63;14.00;;;;;;;;;;5097094;28;20016;-68
2021/04/13 14:37:12;;;;;;;21.40;15.32;;;;;;;;;;5097473;28;20028;-70
2021/04/13 14:39:39;;;;;;;23.73;13.90;;;;;;;;;;5099348;28;20016;-68
2021/04/13 14:42:06;;;;;;;22.33;13.57;;;;;;;;;;5098803;28;20020;-68
2021/04/13 14:44:33;;;;;;;24.80;15.65;;;;;;;;;;5103276;28;20033;-69
2021/04/13 14:47:00;;;;;;;20.02;13.80;;;;;;;;;;5099710;28;20024;-68
2021/04/13 14:49:26;;;;;;;;;;;;;;;;;;5098401;28;20267;-70
2021/04/13 14:51:52;;;;;;;25.42;15.82;;;;;;;;;;5100828;28;20359;-68
2021/04/13 14:54:19;;;;;;;25.30;15.55;;;;;;;;;;5099539;28;20024;-69
2021/04/13 14:56:45;;;;;;;19.60;13.43;;;;;;;;;;5100855;28;20032;-68
2021/04/13 14:59:12;;;;;;;18.05;10.13;;;;;;;;;;5103251;28;20023;-69
2021/04/13 15:01:38;;;;;;;19.87;10.67;;;;;;;;;;5102626;28;20024;-68
2021/04/13 15:04:04;;;;;;;15.98;10.57;;;;;;;;;;5103301;28;20027;-68
2021/04/13 15:06:30;;;;;;;13.68;9.80;;;;;;;;;;5098998;28;20012;-68
2021/04/13 15:08:58;;;;;;;11.40;7.28;;;;;;;;;;5103386;28;20502;-68
2021/04/13 15:11:24;;;;;;;11.85;7.63;;;;;;;;;;5098092;28;20425;-69